sensor_id;sensor_type;location;lat;lon;timestamp;P1;durP1;ratioP1;P2;durP2;ratioP2
32106;SDS011;18622;51.998;10.440;2023-04-25T02:45:33;18.67;;;6.47;;
32106;SDS011;18622;51.998;10.440;2023-04-25T02:48:02;19.57;;;5.37;;
32106;SDS011;18622;51.998;10.440;2023-04-25T02:50:30;14.00;;;5.08;;
32106;SDS011;18622;51.998;10.440;2023-04-25T02:52:57;15.80;;;5.97;;
32106;SDS011;18622;51.998;10.440;2023-04-25T02:55:25;19.70;;;5.90;;
32106;SDS011;18622;51.998;10.440;2023-04-25T02:57:53;12.47;;;5.57;;
32106;SDS011;18622;51.998;10.440;2023-04-25T03:00:24;18.80;;;5.70;;
32106;SDS011;18622;51.998;10.440;2023-04-25T03:02:52;16.33;;;6.37;;
32106;SDS011;18622;51.998;10.440;2023-04-25T03:05:19;17.23;;;6.17;;
32106;SDS011;18622;51.998;10.440;2023-04-25T03:07:47;19.50;;;7.40;;
32106;SDS011;18622;51.998;10.440;2023-04-25T03:10:15;20.77;;;6.83;;
32106;SDS011;18622;51.998;10.440;2023-04-25T03:12:43;21.43;;;7.40;;
32106;SDS011;18622;51.998;10.440;2023-04-25T03:15:11;19.00;;;7.47;;
32106;SDS011;18622;51.998;10.440;2023-04-25T03:17:38;18.13;;;7.17;;
32106;SDS011;18622;51.998;10.440;2023-04-25T03:20:07;17.70;;;7.57;;
32106;SDS011;18622;51.998;10.440;2023-04-25T03:22:35;18.30;;;7.50;;
32106;SDS011;18622;51.998;10.440;2023-04-25T03:25:03;17.33;;;7.17;;
32106;SDS011;18622;51.998;10.440;2023-04-25T03:27:31;22.50;;;7.30;;
32106;SDS011;18622;51.998;10.440;2023-04-25T03:29:59;19.27;;;6.77;;
32106;SDS011;18622;51.998;10.440;2023-04-25T03:32:27;16.17;;;8.17;;
32106;SDS011;18622;51.998;10.440;2023-04-25T03:34:55;22.73;;;8.57;;
32106;SDS011;18622;51.998;10.440;2023-04-25T03:37:22;21.97;;;9.43;;
32106;SDS011;18622;51.998;10.440;2023-04-25T03:39:50;30.10;;;9.90;;
32106;SDS011;18622;51.998;10.440;2023-04-25T03:42:18;29.20;;;9.83;;
32106;SDS011;18622;51.998;10.440;2023-04-25T03:44:47;21.47;;;10.20;;
32106;SDS011;18622;51.998;10.440;2023-04-25T03:47:15;21.27;;;9.73;;
32106;SDS011;18622;51.998;10.440;2023-04-25T03:49:43;23.90;;;11.47;;
32106;SDS011;18622;51.998;10.440;2023-04-25T03:52:11;19.20;;;10.93;;
32106;SDS011;18622;51.998;10.440;2023-04-25T03:54:39;26.60;;;10.13;;
32106;SDS011;18622;51.998;10.440;2023-04-25T03:57:06;26.87;;;11.63;;
32106;SDS011;18622;51.998;10.440;2023-04-25T03:59:34;27.87;;;9.87;;
32106;SDS011;18622;51.998;10.440;2023-04-25T04:02:02;29.80;;;11.30;;
32106;SDS011;18622;51.998;10.440;2023-04-25T04:04:30;21.47;;;9.40;;
32106;SDS011;18622;51.998;10.440;2023-04-25T04:06:58;30.87;;;12.40;;
32106;SDS011;18622;51.998;10.440;2023-04-25T04:09:26;26.33;;;10.90;;
32106;SDS011;18622;51.998;10.440;2023-04-25T04:11:53;46.03;;;13.40;;
32106;SDS011;18622;51.998;10.440;2023-04-25T04:14:21;36.67;;;12.53;;
32106;SDS011;18622;51.998;10.440;2023-04-25T04:16:50;41.43;;;11.67;;
32106;SDS011;18622;51.998;10.440;2023-04-25T04:19:18;22.80;;;9.53;;
32106;SDS011;18622;51.998;10.440;2023-04-25T04:21:46;20.97;;;8.57;;
32106;SDS011;18622;51.998;10.440;2023-04-25T04:24:14;14.60;;;7.10;;
32106;SDS011;18622;51.998;10.440;2023-04-25T04:26:42;20.65;;;8.28;;
32106;SDS011;18622;51.998;10.440;2023-04-25T04:29:10;18.45;;;8.38;;
32106;SDS011;18622;51.998;10.440;2023-04-25T04:31:40;24.63;;;7.90;;
32106;SDS011;18622;51.998;10.440;2023-04-25T04:34:08;19.73;;;6.50;;
32106;SDS011;18622;51.998;10.440;2023-04-25T04:36:36;24.52;;;6.90;;
32106;SDS011;18622;51.998;10.440;2023-04-25T04:39:05;31.90;;;10.10;;
32106;SDS011;18622;51.998;10.440;2023-04-25T04:41:34;32.93;;;6.93;;
32106;SDS011;18622;51.998;10.440;2023-04-25T04:44:02;26.10;;;6.63;;
32106;SDS011;18622;51.998;10.440;2023-04-25T04:46:30;23.83;;;6.60;;
32106;SDS011;18622;51.998;10.440;2023-04-25T04:48:59;29.50;;;7.40;;
32106;SDS011;18622;51.998;10.440;2023-04-25T04:51:27;24.03;;;6.83;;
32106;SDS011;18622;51.998;10.440;2023-04-25T04:53:55;28.38;;;6.42;;
32106;SDS011;18622;51.998;10.440;2023-04-25T04:56:24;31.68;;;6.72;;
32106;SDS011;18622;51.998;10.440;2023-04-25T04:58:52;30.63;;;7.07;;
32106;SDS011;18622;51.998;10.440;2023-04-25T05:01:20;43.47;;;6.93;;
32106;SDS011;18622;51.998;10.440;2023-04-25T05:03:48;29.20;;;6.20;;
32106;SDS011;18622;51.998;10.440;2023-04-25T05:06:16;29.20;;;8.03;;
32106;SDS011;18622;51.998;10.440;2023-04-25T05:11:12;26.85;;;6.65;;
32106;SDS011;18622;51.998;10.440;2023-04-25T05:13:40;34.83;;;8.20;;
32106;SDS011;18622;51.998;10.440;2023-04-25T05:16:08;35.17;;;6.90;;
32106;SDS011;18622;51.998;10.440;2023-04-25T05:18:36;28.17;;;6.37;;
32106;SDS011;18622;51.998;10.440;2023-04-25T05:21:04;45.83;;;7.03;;
32106;SDS011;18622;51.998;10.440;2023-04-25T05:23:32;33.80;;;6.73;;
32106;SDS011;18622;51.998;10.440;2023-04-25T05:26:00;38.27;;;6.20;;
32106;SDS011;18622;51.998;10.440;2023-04-25T05:28:28;31.03;;;6.07;;
32106;SDS011;18622;51.998;10.440;2023-04-25T14:45:46;4.87;;;1.30;;
32106;SDS011;18622;51.998;10.440;2023-04-25T14:48:14;4.53;;;1.10;;
32106;SDS011;18622;51.998;10.440;2023-04-25T14:50:44;6.62;;;1.22;;
32106;SDS011;18622;51.998;10.440;2023-04-25T14:53:12;6.10;;;1.20;;
32106;SDS011;18622;51.998;10.440;2023-04-25T14:55:40;7.23;;;1.10;;
32106;SDS011;18622;51.998;10.440;2023-04-25T14:58:08;5.07;;;1.43;;
32106;SDS011;18622;51.998;10.440;2023-04-25T15:00:35;4.57;;;1.37;;
32106;SDS011;18622;51.998;10.440;2023-04-25T15:03:04;2.00;;;0.93;;
32106;SDS011;18622;51.998;10.440;2023-04-25T15:05:33;7.28;;;1.67;;
32106;SDS011;18622;51.998;10.440;2023-04-25T15:08:01;4.87;;;1.35;;
32106;SDS011;18622;51.998;10.440;2023-04-25T15:10:29;4.07;;;1.20;;
32106;SDS011;18622;51.998;10.440;2023-04-25T15:12:57;3.20;;;1.30;;
32106;SDS011;18622;51.998;10.440;2023-04-25T15:15:25;7.27;;;1.90;;
32106;SDS011;18622;51.998;10.440;2023-04-25T15:17:53;3.70;;;1.07;;
32106;SDS011;18622;51.998;10.440;2023-04-25T15:20:21;7.12;;;1.27;;
32106;SDS011;18622;51.998;10.440;2023-04-25T15:22:49;6.83;;;1.13;;
32106;SDS011;18622;51.998;10.440;2023-04-25T15:25:17;4.97;;;1.20;;
32106;SDS011;18622;51.998;10.440;2023-04-25T15:27:45;6.57;;;1.33;;
32106;SDS011;18622;51.998;10.440;2023-04-25T15:30:14;5.17;;;1.37;;
32106;SDS011;18622;51.998;10.440;2023-04-25T15:32:46;4.50;;;1.30;;
32106;SDS011;18622;51.998;10.440;2023-04-25T15:35:15;3.47;;;1.07;;
32106;SDS011;18622;51.998;10.440;2023-04-25T15:37:42;5.47;;;1.43;;
32106;SDS011;18622;51.998;10.440;2023-04-25T15:40:14;8.85;;;1.75;;
32106;SDS011;18622;51.998;10.440;2023-04-25T15:42:48;2.27;;;0.93;;
32106;SDS011;18622;51.998;10.440;2023-04-25T15:45:13;5.17;;;1.40;;
32106;SDS011;18622;51.998;10.440;2023-04-25T15:47:43;3.77;;;1.32;;
32106;SDS011;18622;51.998;10.440;2023-04-25T15:50:11;6.58;;;1.40;;
32106;SDS011;18622;51.998;10.440;2023-04-25T15:52:40;3.70;;;1.37;;
32106;SDS011;18622;51.998;10.440;2023-04-25T15:55:09;6.03;;;1.40;;
32106;SDS011;18622;51.998;10.440;2023-04-25T15:57:38;6.67;;;2.17;;
32106;SDS011;18622;51.998;10.440;2023-04-25T16:00:09;5.72;;;2.90;;
32106;SDS011;18622;51.998;10.440;2023-04-25T16:02:39;5.10;;;1.17;;
32106;SDS011;18622;51.998;10.440;2023-04-25T16:05:08;6.28;;;1.45;;
32106;SDS011;18622;51.998;10.440;2023-04-25T16:07:40;3.15;;;1.30;;
32106;SDS011;18622;51.998;10.440;2023-04-25T16:10:09;3.00;;;1.20;;
32106;SDS011;18622;51.998;10.440;2023-04-25T16:12:38;5.60;;;2.13;;
32106;SDS011;18622;51.998;10.440;2023-04-25T16:15:06;5.70;;;1.47;;
32106;SDS011;18622;51.998;10.440;2023-04-25T16:17:34;9.95;;;2.25;;
32106;SDS011;18622;51.998;10.440;2023-04-25T16:20:02;5.33;;;1.70;;
32106;SDS011;18622;51.998;10.440;2023-04-25T16:22:32;3.52;;;1.47;;
32106;SDS011;18622;51.998;10.440;2023-04-25T16:24:59;5.37;;;1.50;;
32106;SDS011;18622;51.998;10.440;2023-04-25T16:27:28;4.97;;;1.20;;
32106;SDS011;18622;51.998;10.440;2023-04-25T16:29:55;4.03;;;1.67;;
32106;SDS011;18622;51.998;10.440;2023-04-25T16:32:23;4.57;;;1.30;;
32106;SDS011;18622;51.998;10.440;2023-04-25T16:34:51;5.67;;;1.30;;
32106;SDS011;18622;51.998;10.440;2023-04-25T16:37:19;6.70;;;1.70;;
32106;SDS011;18622;51.998;10.440;2023-04-25T16:39:47;5.40;;;1.60;;
32106;SDS011;18622;51.998;10.440;2023-04-25T16:42:15;4.53;;;1.50;;
32106;SDS011;18622;51.998;10.440;2023-04-25T16:44:43;5.17;;;2.00;;
32106;SDS011;18622;51.998;10.440;2023-04-25T16:47:10;6.63;;;1.50;;
32106;SDS011;18622;51.998;10.440;2023-04-25T16:49:38;5.67;;;1.67;;
32106;SDS011;18622;51.998;10.440;2023-04-25T16:52:06;8.27;;;1.70;;
32106;SDS011;18622;51.998;10.440;2023-04-25T16:54:34;6.83;;;1.80;;
32106;SDS011;18622;51.998;10.440;2023-04-25T16:57:02;4.53;;;2.30;;
32106;SDS011;18622;51.998;10.440;2023-04-25T16:59:30;6.72;;;2.35;;
32106;SDS011;18622;51.998;10.440;2023-04-25T17:01:58;3.73;;;1.47;;
32106;SDS011;18622;51.998;10.440;2023-04-25T17:04:27;5.70;;;1.83;;
32106;SDS011;18622;51.998;10.440;2023-04-25T17:06:54;3.97;;;1.53;;
32106;SDS011;18622;51.998;10.440;2023-04-25T17:09:22;4.73;;;2.00;;
32106;SDS011;18622;51.998;10.440;2023-04-25T17:11:50;6.07;;;1.60;;
32106;SDS011;18622;51.998;10.440;2023-04-25T17:14:18;7.23;;;1.73;;
32106;SDS011;18622;51.998;10.440;2023-04-25T17:16:46;8.73;;;1.80;;
32106;SDS011;18622;51.998;10.440;2023-04-25T17:19:14;3.95;;;1.30;;
32106;SDS011;18622;51.998;10.440;2023-04-25T17:21:42;5.77;;;1.47;;
32106;SDS011;18622;51.998;10.440;2023-04-25T17:24:10;6.53;;;1.65;;
32106;SDS011;18622;51.998;10.440;2023-04-25T17:26:39;6.67;;;1.60;;
32106;SDS011;18622;51.998;10.440;2023-04-25T17:29:07;8.30;;;1.87;;
32106;SDS011;18622;51.998;10.440;2023-04-25T17:31:35;7.73;;;1.73;;
32106;SDS011;18622;51.998;10.440;2023-04-25T17:34:03;9.27;;;1.97;;
32106;SDS011;18622;51.998;10.440;2023-04-25T17:36:31;6.90;;;1.77;;
32106;SDS011;18622;51.998;10.440;2023-04-25T17:38:59;6.63;;;1.70;;
32106;SDS011;18622;51.998;10.440;2023-04-25T17:41:27;7.77;;;1.37;;
32106;SDS011;18622;51.998;10.440;2023-04-25T17:43:54;10.17;;;1.90;;
32106;SDS011;18622;51.998;10.440;2023-04-25T17:46:22;7.20;;;2.57;;
32106;SDS011;18622;51.998;10.440;2023-04-25T17:48:51;6.47;;;1.72;;
32106;SDS011;18622;51.998;10.440;2023-04-25T17:51:19;8.60;;;1.60;;
32106;SDS011;18622;51.998;10.440;2023-04-25T17:53:47;5.33;;;1.50;;
32106;SDS011;18622;51.998;10.440;2023-04-25T17:56:15;8.60;;;1.87;;
32106;SDS011;18622;51.998;10.440;2023-04-25T17:58:42;7.57;;;2.00;;
32106;SDS011;18622;51.998;10.440;2023-04-25T18:01:10;4.97;;;1.63;;
32106;SDS011;18622;51.998;10.440;2023-04-25T18:03:38;7.03;;;1.53;;
32106;SDS011;18622;51.998;10.440;2023-04-25T18:06:08;8.58;;;2.45;;
32106;SDS011;18622;51.998;10.440;2023-04-25T18:08:35;9.63;;;3.00;;
32106;SDS011;18622;51.998;10.440;2023-04-25T18:11:03;4.77;;;1.33;;
32106;SDS011;18622;51.998;10.440;2023-04-25T18:13:31;3.57;;;1.83;;
32106;SDS011;18622;51.998;10.440;2023-04-25T18:15:59;11.30;;;1.77;;
32106;SDS011;18622;51.998;10.440;2023-04-25T18:18:27;5.50;;;1.73;;
32106;SDS011;18622;51.998;10.440;2023-04-25T18:20:56;14.23;;;2.20;;
32106;SDS011;18622;51.998;10.440;2023-04-25T18:23:24;8.90;;;1.60;;
32106;SDS011;18622;51.998;10.440;2023-04-25T18:25:52;5.23;;;1.20;;
32106;SDS011;18622;51.998;10.440;2023-04-25T18:28:20;3.70;;;1.30;;
32106;SDS011;18622;51.998;10.440;2023-04-25T18:30:48;6.93;;;1.27;;
32106;SDS011;18622;51.998;10.440;2023-04-25T18:33:16;6.47;;;1.47;;
32106;SDS011;18622;51.998;10.440;2023-04-25T18:35:43;3.87;;;0.80;;
32106;SDS011;18622;51.998;10.440;2023-04-25T18:38:12;7.53;;;1.10;;
32106;SDS011;18622;51.998;10.440;2023-04-25T18:40:39;4.60;;;1.20;;
32106;SDS011;18622;51.998;10.440;2023-04-25T18:43:07;6.00;;;1.30;;
32106;SDS011;18622;51.998;10.440;2023-04-25T18:45:35;6.43;;;1.40;;
32106;SDS011;18622;51.998;10.440;2023-04-25T18:48:03;3.17;;;1.30;;
32106;SDS011;18622;51.998;10.440;2023-04-25T18:50:30;3.40;;;1.07;;
32106;SDS011;18622;51.998;10.440;2023-04-25T18:52:58;9.17;;;4.13;;
32106;SDS011;18622;51.998;10.440;2023-04-25T18:55:27;10.85;;;3.92;;
32106;SDS011;18622;51.998;10.440;2023-04-25T18:57:55;4.87;;;2.07;;
32106;SDS011;18622;51.998;10.440;2023-04-25T19:00:23;7.30;;;2.10;;
32106;SDS011;18622;51.998;10.440;2023-04-25T19:02:50;4.33;;;1.60;;
32106;SDS011;18622;51.998;10.440;2023-04-25T19:05:20;7.60;;;2.87;;
32106;SDS011;18622;51.998;10.440;2023-04-25T19:07:48;4.67;;;1.45;;
32106;SDS011;18622;51.998;10.440;2023-04-25T19:10:16;8.10;;;2.30;;
32106;SDS011;18622;51.998;10.440;2023-04-25T19:12:43;5.53;;;2.10;;
32106;SDS011;18622;51.998;10.440;2023-04-25T19:15:11;12.00;;;2.70;;
32106;SDS011;18622;51.998;10.440;2023-04-25T19:17:39;5.50;;;1.90;;
32106;SDS011;18622;51.998;10.440;2023-04-25T19:20:08;7.83;;;1.90;;
32106;SDS011;18622;51.998;10.440;2023-04-25T19:22:36;6.95;;;2.35;;
32106;SDS011;18622;51.998;10.440;2023-04-25T19:25:04;6.33;;;1.93;;
32106;SDS011;18622;51.998;10.440;2023-04-25T19:27:32;6.33;;;1.60;;
32106;SDS011;18622;51.998;10.440;2023-04-25T19:30:00;5.57;;;1.33;;
32106;SDS011;18622;51.998;10.440;2023-04-25T19:32:29;7.13;;;1.57;;
32106;SDS011;18622;51.998;10.440;2023-04-25T19:34:57;3.23;;;1.33;;
32106;SDS011;18622;51.998;10.440;2023-04-25T19:37:25;5.60;;;1.70;;
32106;SDS011;18622;51.998;10.440;2023-04-25T19:39:53;4.57;;;1.30;;
32106;SDS011;18622;51.998;10.440;2023-04-25T19:42:21;8.90;;;1.40;;
32106;SDS011;18622;51.998;10.440;2023-04-25T19:44:50;5.00;;;1.83;;
32106;SDS011;18622;51.998;10.440;2023-04-25T19:47:17;4.78;;;1.60;;
32106;SDS011;18622;51.998;10.440;2023-04-25T19:49:45;9.57;;;1.70;;
32106;SDS011;18622;51.998;10.440;2023-04-25T19:52:13;7.17;;;2.20;;
32106;SDS011;18622;51.998;10.440;2023-04-25T19:54:42;6.40;;;1.85;;
32106;SDS011;18622;51.998;10.440;2023-04-25T19:57:12;15.15;;;4.50;;
32106;SDS011;18622;51.998;10.440;2023-04-25T19:59:40;17.50;;;5.93;;
32106;SDS011;18622;51.998;10.440;2023-04-25T20:02:10;22.03;;;6.27;;
32106;SDS011;18622;51.998;10.440;2023-04-25T20:04:37;12.87;;;4.93;;
32106;SDS011;18622;51.998;10.440;2023-04-25T20:07:05;11.17;;;3.47;;
32106;SDS011;18622;51.998;10.440;2023-04-25T20:09:33;20.77;;;7.83;;
32106;SDS011;18622;51.998;10.440;2023-04-25T20:12:01;6.12;;;1.70;;
32106;SDS011;18622;51.998;10.440;2023-04-25T20:14:29;14.80;;;3.30;;
32106;SDS011;18622;51.998;10.440;2023-04-25T20:16:57;11.33;;;1.83;;
32106;SDS011;18622;51.998;10.440;2023-04-25T20:19:25;6.45;;;2.65;;
32106;SDS011;18622;51.998;10.440;2023-04-25T20:21:53;8.67;;;2.00;;
32106;SDS011;18622;51.998;10.440;2023-04-25T20:24:21;6.03;;;2.52;;
32106;SDS011;18622;51.998;10.440;2023-04-25T20:26:49;9.93;;;1.60;;
32106;SDS011;18622;51.998;10.440;2023-04-25T20:29:17;8.17;;;1.87;;
32106;SDS011;18622;51.998;10.440;2023-04-25T20:31:44;6.90;;;1.97;;
32106;SDS011;18622;51.998;10.440;2023-04-25T20:34:14;7.77;;;1.73;;
32106;SDS011;18622;51.998;10.440;2023-04-25T20:36:43;7.30;;;1.97;;
32106;SDS011;18622;51.998;10.440;2023-04-25T20:39:11;21.30;;;9.90;;
32106;SDS011;18622;51.998;10.440;2023-04-25T20:41:39;18.95;;;5.47;;
32106;SDS011;18622;51.998;10.440;2023-04-25T20:44:09;8.90;;;3.70;;
